Time;durP1;ratioP1;P1;durP2;ratioP2;P2;SDS_P1;SDS_P2;PMS_P1;PMS_P2;Temp;Humidity;BMP_temperature;BMP_pressure;BME280_temperature;BME280_humidity;BME280_pressure;Samples;Min_cycle;Max_cycle;Signal;HPM_P1;HPM_P2
2021/11/12 00:12:21;;;;;;;;;64.75;52.00;;;;;6.11;58.08;101744.88;4978316;28;45212;-47
2021/11/12 00:14:52;;;;;;;;;60.00;49.00;;;;;6.11;58.23;101744.88;4977838;28;45482;-45
2021/11/12 00:17:20;;;;;;;;;63.75;51.75;;;;;6.10;58.31;101740.50;4977962;28;46491;-44
2021/11/12 00:19:48;;;;;;;;;61.50;48.75;;;;;6.08;58.34;101744.78;4978216;28;45248;-44
2021/11/12 00:22:14;;;;;;;;;63.00;49.50;;;;;6.08;58.21;101751.75;4978073;28;45269;-42
2021/11/12 00:24:39;;;;;;;;;67.00;50.25;;;;;6.05;58.17;101738.63;4978089;28;45298;-41
2021/11/12 00:27:06;;;;;;;;;67.00;51.50;;;;;6.03;58.09;101745.56;4977658;28;46135;-46
2021/11/12 00:30:23;;;;;;;;;68.50;49.25;;;;;6.05;58.30;101741.22;4977717;28;45310;-46
2021/11/12 00:40:14;;;;;;;;;62.00;46.75;;;;;6.01;58.30;101742.88;4977841;28;45438;-47
2021/11/12 00:42:54;;;;;;;;;60.00;46.25;;;;;5.99;58.40;101742.88;4976575;28;45234;-48
2021/11/12 00:45:22;;;;;;;;;56.25;44.25;;;;;5.97;58.42;101730.59;4977242;28;45274;-46
2021/11/12 00:47:53;;;;;;;;;59.50;45.25;;;;;5.96;58.26;101718.41;4967920;28;46309;-45
2021/11/12 00:55:23;;;;;;;;;59.00;48.25;;;;;5.90;58.43;101723.50;4977475;28;45394;-46
2021/11/12 00:57:49;;;;;;;;;57.75;47.50;;;;;5.89;58.49;101738.28;4977360;28;46248;-45
2021/11/12 01:00:15;;;;;;;;;64.25;49.75;;;;;5.93;58.48;101744.44;4977153;28;45451;-49
2021/11/12 01:02:41;;;;;;;;;56.25;46.25;;;;;5.91;58.45;101733.97;4977739;28;45438;-45
2021/11/12 01:05:08;;;;;;;;;54.50;46.00;;;;;5.91;58.60;101730.47;4977426;28;45238;-47
2021/11/12 01:07:34;;;;;;;;;56.75;44.75;;;;;5.91;58.26;101730.47;4977279;28;47157;-47
2021/11/12 01:10:00;;;;;;;;;63.50;47.00;;;;;5.91;58.53;101725.25;4977488;28;45284;-44
2021/11/12 01:12:27;;;;;;;;;62.50;46.25;;;;;5.89;58.38;101725.22;4977353;28;45537;-47
2021/11/12 01:14:53;;;;;;;;;60.75;45.25;;;;;5.91;58.33;101722.66;4977173;28;45415;-44
2021/11/12 01:17:19;;;;;;;;;60.75;46.00;;;;;5.89;58.43;101722.63;4977296;28;46033;-44
2021/11/12 01:19:45;;;;;;;;;51.75;43.00;;;;;5.90;58.62;101715.66;4977335;28;45316;-45
2021/11/12 01:22:11;;;;;;;;;58.75;46.75;;;;;5.90;58.58;101724.38;4977265;28;45543;-46
2021/11/12 01:24:38;;;;;;;;;49.50;41.00;;;;;5.89;58.48;101717.41;4975988;28;45879;-48
2021/11/12 01:27:04;;;;;;;;;48.75;40.50;;;;;5.88;58.49;101709.56;4976796;28;45429;-46
2021/11/12 01:29:29;;;;;;;;;56.50;43.00;;;;;5.88;58.51;101709.56;4976927;28;45456;-44
2021/11/12 01:31:55;;;;;;;;;53.00;40.00;;;;;5.85;58.59;101708.63;4977095;28;45940;-44
2021/11/12 01:34:20;;;;;;;;;43.75;35.50;;;;;5.85;58.81;101712.97;4977175;28;45500;-45
2021/11/12 01:36:47;;;;;;;;;54.25;42.25;;;;;5.84;58.68;101701.66;4976834;28;46281;-44
2021/11/12 01:39:21;;;;;;;;;53.25;42.00;;;;;5.82;58.81;101705.97;4977027;28;45374;-45
2021/11/12 01:41:51;;;;;;;;;41.75;37.00;;;;;5.82;58.58;101708.59;4977039;28;45358;-48
2021/11/12 01:44:27;;;;;;;;;46.25;39.00;;;;;5.82;58.63;101710.28;4976569;28;45241;-48
2021/11/12 01:49:41;;;;;;;;;48.25;37.75;;;;;5.79;58.67;101697.19;4974282;28;45292;-44
2021/11/12 01:57:26;;;;;;;;;46.75;36.75;;;;;5.78;58.73;101690.22;4979717;28;46201;-48
2021/11/12 01:59:48;;;;;;;;;43.50;34.75;;;;;5.76;58.48;101690.19;4979589;28;45342;-46
2021/11/12 02:02:13;;;;;;;;;40.75;36.50;;;;;5.72;58.67;101690.94;4980109;28;45422;-46
2021/11/12 02:04:38;;;;;;;;;41.00;35.00;;;;;5.70;58.79;101684.84;4978376;28;45268;-44
2021/11/12 02:07:05;;;;;;;;;42.25;33.50;;;;;5.71;58.83;101689.22;4979684;28;46081;-47
2021/11/12 02:09:30;;;;;;;;;40.25;36.00;;;;;5.70;58.45;101687.44;4979609;28;45478;-45
2021/11/12 02:14:54;;;;;;;;;49.50;40.50;;;;;5.67;58.59;101684.75;4967037;28;45464;-46
2021/11/12 02:17:22;;;;;;;;;36.50;33.00;;;;;5.65;58.65;101682.13;4979413;28;46998;-48
2021/11/12 02:20:20;;;;;;;;;42.00;37.25;;;;;5.64;58.52;101674.28;4979829;28;45589;-45
2021/11/12 02:22:41;;;;;;;;;42.25;36.50;;;;;5.63;58.58;101672.50;4979348;28;45182;-44
2021/11/12 02:25:21;;;;;;;;;50.25;40.00;;;;;5.61;58.49;101674.19;4979404;28;45496;-44
2021/11/12 02:28:21;;;;;;;;;43.50;38.75;;;;;5.61;58.79;101671.59;4979125;27;45390;-44
2021/11/12 02:30:40;;;;;;;;;47.50;37.00;;;;;5.59;58.63;101655.91;4979733;28;45337;-46
2021/11/12 02:33:11;;;;;;;;;50.50;41.00;;;;;5.58;58.73;101658.50;4979746;28;45330;-44
2021/11/12 02:35:40;;;;;;;;;52.00;41.75;;;;;5.56;58.85;101650.66;4979169;28;45240;-44
2021/11/12 02:38:06;;;;;;;;;47.75;40.25;;;;;5.54;58.66;101650.59;4979306;28;45319;-44
2021/11/12 02:40:33;;;;;;;;;45.75;37.50;;;;;5.53;58.50;101655.78;4979190;28;45329;-44
2021/11/12 02:43:01;;;;;;;;;48.75;38.50;;;;;5.50;58.84;101656.59;4979242;28;45309;-45
2021/11/12 02:45:27;;;;;;;;;52.50;40.25;;;;;5.49;58.58;101662.66;4978806;28;45166;-45
2021/11/12 02:47:53;;;;;;;;;54.50;40.50;;;;;5.47;58.60;101666.97;4968798;28;45299;-46
2021/11/12 02:50:19;;;;;;;;;52.00;38.75;;;;;5.45;58.56;101657.38;4983525;28;45510;-46
2021/11/12 02:52:48;;;;;;;;;48.00;38.75;;;;;5.44;58.60;101653.84;4979013;28;45301;-45
2021/11/12 02:55:14;;;;;;;;;47.50;39.25;;;;;5.43;58.48;101659.06;4978963;28;45246;-48
2021/11/12 02:57:41;;;;;;;;;44.75;38.25;;;;;5.42;58.54;101665.09;4978679;28;46903;-47
2021/11/12 03:00:08;;;;;;;;;47.50;36.75;;;;;5.39;58.67;101668.53;4978113;28;45311;-44
2021/11/12 03:02:34;;;;;;;;;48.50;39.25;;;;;5.39;58.62;101667.66;4978987;27;45319;-47
2021/11/12 03:05:00;;;;;;;;;49.00;39.50;;;;;5.37;58.67;101668.50;4978605;28;45314;-47
2021/11/12 03:07:25;;;;;;;;;42.50;38.75;;;;;5.37;58.74;101662.38;4978881;28;45304;-44
2021/11/12 03:09:51;;;;;;;;;45.00;39.00;;;;;5.35;58.46;101653.69;4958853;28;45549;-45
2021/11/12 03:12:16;;;;;;;;;53.50;38.75;;;;;5.33;58.78;101653.66;4971394;28;45714;-45
2021/11/12 03:14:42;;;;;;;;;52.75;39.00;;;;;5.33;58.51;101655.34;4977176;28;45999;-48
2021/11/12 03:17:07;;;;;;;;;43.75;38.50;;;;;5.31;58.66;101650.13;4978937;28;45479;-45
2021/11/12 03:19:33;;;;;;;;;54.50;43.00;;;;;5.33;58.74;101652.75;4978705;28;45205;-44
2021/11/12 03:22:04;;;;;;;;;49.75;36.75;;;;;5.32;58.85;101648.38;4977707;28;45301;-46
2021/11/12 03:24:34;;;;;;;;;45.00;40.00;;;;;5.29;58.65;101646.59;4978630;28;45274;-45
2021/11/12 04:02:05;;;;;;;;;44.25;36.00;;;;;5.09;58.82;101625.28;4958763;28;45520;-48
2021/11/12 04:04:51;;;;;;;;;38.50;37.00;;;;;5.07;59.06;101628.72;4973678;28;45240;-48
2021/11/12 05:09:42;;;;;;;;;37.25;33.00;;;;;4.77;59.12;101544.69;4977382;28;45217;-44
2021/11/12 05:43:55;;;;;;;;;27.25;19.75;;;;;4.72;59.45;101521.16;4979705;28;45426;-45
2021/11/12 05:56:50;;;;;;;;;14.25;11.75;;;;;4.70;59.63;101499.44;4979904;28;45416;-44
2021/11/12 05:59:17;;;;;;;;;20.75;17.50;;;;;4.67;59.40;101488.94;4979625;28;45363;-47
2021/11/12 06:01:45;;;;;;;;;24.50;21.00;;;;;4.67;59.73;101498.47;4978579;28;45691;-45
2021/11/12 06:04:11;;;;;;;;;21.75;20.00;;;;;4.68;59.46;101500.25;4979761;28;45346;-44
2021/11/12 06:06:36;;;;;;;;;24.75;22.25;;;;;4.67;59.57;101504.56;4978372;28;47023;-45
2021/11/12 06:09:04;;;;;;;;;18.50;18.50;;;;;4.64;59.64;101504.50;4978502;28;45311;-45
2021/11/12 06:11:30;;;;;;;;;24.25;18.25;;;;;4.63;59.78;101504.44;4959821;28;45393;-46
2021/11/12 06:13:57;;;;;;;;;22.25;17.00;;;;;4.62;59.83;101493.16;4959975;28;45316;-45
2021/11/12 06:16:23;;;;;;;;;21.50;17.50;;;;;4.62;59.97;101500.09;4959988;28;45366;-45
2021/11/12 06:18:48;;;;;;;;;22.50;17.50;;;;;4.58;59.85;101483.53;4960057;28;45462;-48
2021/11/12 06:21:14;;;;;;;;;19.75;18.00;;;;;4.62;59.86;101482.75;4958846;28;45324;-43
2021/11/12 06:23:40;;;;;;;;;22.50;21.25;;;;;4.62;59.71;101489.69;4967828;28;45360;-50
2021/11/12 06:26:06;;;;;;;;;24.00;20.75;;;;;4.64;60.01;101490.59;4978666;28;46315;-45
2021/11/12 06:28:32;;;;;;;;;23.50;22.00;;;;;4.63;59.96;101491.41;4979207;28;45347;-45
2021/11/12 06:31:00;;;;;;;;;18.75;17.00;;;;;4.63;59.02;101487.13;4979510;28;45188;-47
2021/11/12 06:33:25;;;;;;;;;23.00;18.50;;;;;4.64;59.76;101485.38;4979458;28;45501;-43
2021/11/12 06:35:51;;;;;;;;;24.50;19.00;;;;;4.64;59.96;101474.97;4978682;28;45252;-44
2021/11/12 06:38:20;;;;;;;;;21.00;17.50;;;;;4.64;59.77;101478.47;4979372;28;45232;-43
2021/11/12 06:40:45;;;;;;;;;21.50;19.00;;;;;4.64;59.65;101473.25;4979482;28;45388;-42
2021/11/12 06:51:15;;;;;;;;;22.75;19.50;;;;;4.67;59.72;101482.84;4979422;28;45316;-44
2021/11/12 06:53:40;;;;;;;;;22.25;19.25;;;;;4.68;59.67;101482.88;4979221;28;45264;-43
2021/11/12 06:56:06;;;;;;;;;17.25;16.25;;;;;4.69;60.12;101486.34;4979081;28;45367;-45
2021/11/12 06:58:32;;;;;;;;;20.50;18.25;;;;;4.66;59.96;101492.38;4978671;28;45271;-47
2021/11/12 07:00:58;;;;;;;;;21.25;17.25;;;;;4.69;59.81;101499.38;4965599;28;45375;-47
2021/11/12 07:03:26;;;;;;;;;18.25;17.75;;;;;4.70;59.58;101498.53;4958239;28;45502;-46
2021/11/12 07:05:52;;;;;;;;;25.75;18.50;;;;;4.70;59.76;101499.44;4958166;28;46285;-44
2021/11/12 07:08:18;;;;;;;;;20.25;18.50;;;;;4.71;59.96;101511.56;4959391;28;45233;-45
2021/11/12 07:10:44;;;;;;;;;18.25;14.25;;;;;4.71;59.88;101497.69;4959528;28;45280;-43
2021/11/12 07:13:09;;;;;;;;;22.25;20.75;;;;;4.72;60.06;101499.47;4973563;28;45345;-44
2021/11/12 07:15:34;;;;;;;;;22.50;18.25;;;;;4.74;59.81;101491.66;4959179;28;45321;-46
2021/11/12 07:18:00;;;;;;;;;17.50;17.50;;;;;4.70;59.72;101493.31;4959206;28;45303;-48
2021/11/12 07:20:27;;;;;;;;;23.00;19.25;;;;;4.72;59.66;101494.25;4958192;28;45488;-46
2021/11/12 07:22:52;;;;;;;;;23.50;19.00;;;;;4.70;60.31;101478.59;4973885;28;45269;-47
2021/11/12 07:25:18;;;;;;;;;16.50;13.00;;;;;4.72;59.75;101471.69;4959122;28;45371;-48
2021/11/12 07:27:43;;;;;;;;;19.00;19.00;;;;;4.72;59.85;101474.28;4959045;28;45317;-47
2021/11/12 07:30:14;;;;;;;;;18.25;14.25;;;;;4.72;60.15;101471.69;4959324;28;45592;-44
2021/11/12 07:32:42;;;;;;;;;21.00;17.00;;;;;4.71;60.06;101479.47;4961482;28;45409;-45
2021/11/12 07:35:08;;;;;;;;;24.50;19.50;;;;;4.73;59.98;101483.00;4959091;28;46172;-44
2021/11/12 07:37:34;;;;;;;;;26.50;18.75;;;;;4.74;59.43;101478.66;4959313;28;45316;-46
2021/11/12 07:40:03;;;;;;;;;27.75;22.50;;;;;4.75;60.01;101483.03;4959036;28;45221;-46
2021/11/12 07:47:39;;;;;;;;;27.50;22.50;;;;;4.74;59.98;101469.09;4957860;28;45451;-47
2021/11/12 07:50:08;;;;;;;;;25.50;23.00;;;;;4.78;59.83;101459.63;4980944;28;45339;-46
2021/11/12 07:52:36;;;;;;;;;23.75;19.50;;;;;4.71;60.12;101427.38;4978577;28;45281;-47
2021/11/12 07:55:02;;;;;;;;;21.25;19.25;;;;;4.81;60.06;101451.91;4978128;28;45337;-46
2021/11/12 07:57:28;;;;;;;;;24.00;19.50;;;;;4.83;60.30;101451.09;4976878;28;45281;-47
2021/11/12 07:59:53;;;;;;;;;25.25;18.50;;;;;4.82;60.03;101449.31;4976522;28;45446;-46
2021/11/12 08:02:19;;;;;;;;;36.50;22.25;;;;;4.85;60.13;101458.91;4966655;28;45654;-44
2021/11/12 08:04:47;;;;;;;;;26.50;22.50;;;;;4.86;60.24;101461.56;4971040;28;45284;-48
2021/11/12 08:07:13;;;;;;;;;28.00;22.50;;;;;4.89;60.19;101452.91;4958809;28;45336;-48
2021/11/12 08:12:14;;;;;;;;;23.75;20.25;;;;;4.90;60.14;101443.41;4978075;28;45342;-47
2021/11/12 08:22:53;;;;;;;;;41.75;33.00;;;;;4.96;60.33;101456.56;4977921;28;45301;-47
2021/11/12 08:38:05;;;;;;;;;38.25;31.50;;;;;5.10;60.50;101478.53;4977972;28;45406;-45
2021/11/12 08:45:32;;;;;;;;;30.50;23.25;;;;;5.16;60.30;101463.03;4977220;28;45290;-46
2021/11/12 08:48:21;;;;;;;;;28.75;25.75;;;;;5.16;60.75;101462.16;4966899;28;45298;-47
2021/11/12 08:50:44;;;;;;;;;37.00;34.00;;;;;5.16;60.56;101457.81;4958233;28;45491;-47
2021/11/12 08:53:12;;;;;;;;;22.50;22.00;;;;;5.18;60.63;101461.34;4958758;28;45339;-45
2021/11/12 08:55:39;;;;;;;;;27.00;24.00;;;;;5.30;60.54;101478.06;4968957;28;46905;-43
2021/11/12 08:58:07;;;;;;;;;28.00;23.00;;;;;5.33;60.41;101465.06;4957743;28;45531;-45
2021/11/12 09:00:34;;;;;;;;;29.00;23.50;;;;;5.34;60.71;101465.09;4958005;28;45142;-44
2021/11/12 09:03:01;;;;;;;;;39.25;30.75;;;;;5.35;60.71;101464.25;4957905;28;45479;-45
2021/11/12 09:05:27;;;;;;;;;31.00;28.50;;;;;5.39;60.57;101466.94;4962321;28;45434;-45
2021/11/12 09:07:53;;;;;;;;;42.75;33.75;;;;;5.42;60.77;101480.00;4973738;28;45386;-45
2021/11/12 09:10:24;;;;;;;;;30.50;23.50;;;;;5.43;60.97;101468.75;4977532;28;45570;-44
2021/11/12 09:12:56;;;;;;;;;39.00;29.50;;;;;5.45;60.58;101474.88;4975768;28;45520;-46
2021/11/12 09:15:25;;;;;;;;;36.50;30.25;;;;;5.49;60.63;101481.91;4976986;28;47044;-45
2021/11/12 09:17:51;;;;;;;;;37.00;34.50;;;;;5.49;60.47;101490.59;4977065;28;45411;-48
2021/11/12 09:20:17;;;;;;;;;37.00;32.25;;;;;5.50;60.63;101484.53;4977410;28;45479;-47
2021/11/12 09:22:43;;;;;;;;;38.50;30.25;;;;;5.54;60.74;101496.75;4959655;28;45352;-45
2021/11/12 09:25:10;;;;;;;;;38.75;32.50;;;;;5.56;60.78;101494.19;4976821;28;46053;-43
2021/11/12 09:27:35;;;;;;;;;39.25;34.25;;;;;5.58;60.85;101492.47;4976849;28;45327;-46
2021/11/12 09:30:11;;;;;;;;;33.50;29.25;;;;;5.59;60.72;101488.16;4977222;28;45242;-43
2021/11/12 09:32:37;;;;;;;;;35.50;29.75;;;;;5.61;60.72;101500.38;4976835;28;45440;-47
2021/11/12 09:35:03;;;;;;;;;36.00;34.00;;;;;5.61;60.70;101492.56;4976902;28;46111;-45
2021/11/12 09:37:29;;;;;;;;;36.25;31.00;;;;;5.64;60.74;101492.59;4976702;28;45293;-44
2021/11/12 09:39:57;;;;;;;;;39.00;33.25;;;;;5.66;60.75;101493.50;4976956;28;45481;-44
2021/11/12 09:42:34;;;;;;;;;35.75;33.25;;;;;5.64;60.87;101479.56;4976882;28;45357;-44
2021/11/12 09:45:02;;;;;;;;;35.00;32.00;;;;;5.70;60.80;101487.50;4976560;28;45461;-45
2021/11/12 09:47:30;;;;;;;;;44.75;38.75;;;;;5.69;61.24;101475.28;4972368;28;45228;-47
2021/11/12 09:49:58;;;;;;;;;48.25;37.00;;;;;5.72;60.96;101471.00;4974033;28;45616;-46
2021/11/12 09:52:27;;;;;;;;;48.25;39.00;;;;;5.76;60.71;101460.66;4966073;28;45711;-48
2021/11/12 09:54:53;;;;;;;;;46.50;39.00;;;;;5.78;60.78;101463.28;4976611;28;46097;-47
2021/11/12 09:57:20;;;;;;;;;54.75;41.50;;;;;5.77;61.09;101456.31;4976618;28;45337;-45
2021/11/12 09:59:51;;;;;;;;;54.00;36.75;;;;;5.83;61.01;101454.66;4976450;28;45276;-46
2021/11/12 10:02:18;;;;;;;;;45.50;35.50;;;;;5.88;61.05;101448.66;4976868;28;45245;-45
2021/11/12 10:04:45;;;;;;;;;43.00;36.25;;;;;5.89;60.91;101453.91;4976284;28;46392;-47
2021/11/12 10:07:13;;;;;;;;;41.00;35.50;;;;;5.91;60.98;101435.66;4976630;28;45383;-46
2021/11/12 10:09:43;;;;;;;;;41.00;36.25;;;;;5.92;61.24;101429.59;4976577;28;45174;-44
2021/11/12 10:12:10;;;;;;;;;35.00;33.25;;;;;5.96;61.22;101442.72;4978289;28;45462;-48
2021/11/12 10:14:52;;;;;;;;;44.25;33.75;;;;;6.00;61.02;101423.69;4979228;28;45365;-45
2021/11/12 10:17:22;;;;;;;;;40.25;32.75;;;;;6.01;61.16;101422.84;4979538;28;45202;-46
2021/11/12 10:19:52;;;;;;;;;33.25;28.50;;;;;6.06;61.23;101424.63;4971425;28;45388;-46
2021/11/12 10:22:22;;;;;;;;;34.00;28.50;;;;;6.09;61.31;101409.00;4960116;28;45227;-47
2021/11/12 10:24:47;;;;;;;;;34.75;30.00;;;;;6.14;61.44;101404.75;4963548;28;46924;-44
2021/11/12 10:27:16;;;;;;;;;33.50;29.50;;;;;6.18;61.42;101396.09;4959922;28;45252;-47
2021/11/12 10:29:50;;;;;;;;;42.25;35.75;;;;;6.23;61.30;101397.03;4959927;28;45307;-45
2021/11/12 10:32:22;;;;;;;;;39.00;30.75;;;;;6.29;61.38;101394.53;4959956;28;45294;-44
2021/11/12 10:34:50;;;;;;;;;40.50;35.00;;;;;6.37;61.37;101394.63;4959734;28;46397;-45
2021/11/12 10:37:19;;;;;;;;;43.75;37.25;;;;;6.45;61.27;101390.41;4959789;28;45449;-45
2021/11/12 10:39:51;;;;;;;;;48.75;38.75;;;;;6.51;61.14;101371.31;4959957;28;45328;-48
2021/11/12 10:42:23;;;;;;;;;46.75;35.50;;;;;6.63;61.11;101379.28;4959607;28;45461;-45
2021/11/12 10:45:10;;;;;;;;;53.75;41.25;;;;;6.75;61.54;101381.16;4959250;28;46418;-44
2021/11/12 10:47:45;;;;;;;;;47.25;38.25;;;;;6.89;61.48;101370.00;4959784;28;45244;-44
2021/11/12 10:50:11;;;;;;;;;48.50;40.00;;;;;7.01;61.56;101370.16;4952575;28;45309;-47
2021/11/12 10:52:38;;;;;;;;;46.75;38.00;;;;;7.16;61.59;101380.75;4979291;28;45431;-43
2021/11/12 10:55:16;;;;;;;;;41.00;32.50;;;;;7.32;61.55;101375.69;4977869;28;46926;-47
2021/11/12 10:57:45;;;;;;;;;46.25;39.00;;;;;7.50;61.50;101372.34;4979015;28;45269;-45
2021/11/12 11:00:25;;;;;;;;;35.00;33.25;;;;;7.67;61.51;101377.72;4978973;28;45308;-45
2021/11/12 11:02:55;;;;;;;;;51.25;39.75;;;;;7.81;61.71;101376.09;4978829;28;45362;-45
2021/11/12 11:05:33;;;;;;;;;45.75;37.50;;;;;7.98;61.70;101378.81;4978847;28;46275;-45
2021/11/12 11:08:05;;;;;;;;;43.25;35.00;;;;;8.13;61.60;101353.59;4978766;28;45298;-45
2021/11/12 11:10:32;;;;;;;;;42.25;36.25;;;;;8.24;61.59;101344.06;4979103;28;45215;-48
2021/11/12 11:13:09;;;;;;;;;42.50;37.25;;;;;8.38;61.57;101327.56;4978594;28;45571;-49
2021/11/12 11:15:46;;;;;;;;;48.50;38.50;;;;;8.48;61.36;101310.16;4978620;28;45444;-48
2021/11/12 11:18:24;;;;;;;;;45.50;36.25;;;;;8.60;61.36;101297.09;4977459;28;45378;-44
2021/11/12 11:21:03;;;;;;;;;44.25;38.25;;;;;8.72;61.47;101312.84;4978747;28;45264;-43
2021/11/12 11:23:41;;;;;;;;;48.00;39.75;;;;;8.73;61.44;101284.88;4978692;28;45645;-45
2021/11/12 11:26:06;;;;;;;;;47.00;37.25;;;;;8.88;61.38;101289.28;4978466;28;45571;-46
2021/11/12 11:28:34;;;;;;;;;43.00;37.25;;;;;8.99;61.21;101295.41;4978408;28;45385;-48
2021/11/12 11:31:03;;;;;;;;;45.00;37.00;;;;;9.10;61.25;101298.91;4978681;28;45409;-44
2021/11/12 11:33:29;;;;;;;;;45.75;38.75;;;;;9.21;61.31;101296.31;4977340;28;45546;-45
2021/11/12 11:35:57;;;;;;;;;48.00;36.25;;;;;9.27;61.20;101303.31;4978535;28;46150;-44
2021/11/12 11:38:32;;;;;;;;;47.50;37.75;;;;;9.37;61.26;101299.81;4978579;28;45319;-47
2021/11/12 11:40:58;;;;;;;;;45.00;39.50;;;;;9.50;61.00;101311.19;4978877;28;45295;-49
2021/11/12 11:43:24;;;;;;;;;40.75;36.00;;;;;9.63;61.02;101312.03;4978305;28;45394;-46
2021/11/12 11:45:50;;;;;;;;;43.75;37.00;;;;;9.74;61.05;101302.41;4978380;28;46114;-46
2021/11/12 11:48:17;;;;;;;;;50.00;39.75;;;;;9.85;61.02;101307.63;4972725;28;45252;-47
2021/11/12 11:50:55;;;;;;;;;40.50;35.00;;;;;10.00;60.95;101301.47;4978761;28;45221;-48
2021/11/12 11:53:25;;;;;;;;;46.75;38.50;;;;;10.14;61.08;101298.81;4978364;28;45396;-47
2021/11/12 11:55:52;;;;;;;;;50.00;38.50;;;;;10.29;61.07;101308.38;4978492;28;46184;-45
2021/11/12 11:58:37;;;;;;;;;43.25;34.25;;;;;10.46;60.93;101318.84;4978002;28;45231;-48
2021/11/12 12:01:27;;;;;;;;;37.25;35.00;;;;;10.62;60.77;101319.66;4978367;28;45243;-46
2021/11/12 12:04:05;;;;;;;;;48.25;38.50;;;;;10.76;60.60;101302.94;4978607;28;45337;-46
2021/11/12 12:06:30;;;;;;;;;45.75;38.75;;;;;10.88;60.59;101303.72;4978043;28;45340;-47
2021/11/12 12:09:06;;;;;;;;;48.00;40.00;;;;;11.00;60.49;101317.66;4978460;28;45166;-46
2021/11/12 12:11:49;;;;;;;;;39.75;34.00;;;;;11.14;60.27;101312.31;4978364;28;45217;-48
2021/11/12 12:14:26;;;;;;;;;45.00;36.50;;;;;11.27;60.52;101302.56;4962589;28;45226;-47
2021/11/12 12:17:09;;;;;;;;;48.75;39.25;;;;;11.37;60.17;101297.22;4957279;28;47927;-49
2021/11/12 12:19:56;;;;;;;;;51.25;40.00;;;;;11.48;60.03;101283.97;4957190;28;45901;-48
2021/11/12 12:34:23;;;;;;;;;46.50;38.00;;;;;12.15;59.53;101257.81;4977239;28;45262;-47
2021/11/12 13:25:55;;;;;;;;;50.50;39.50;;;;;14.25;57.92;101191.78;4976987;28;45240;-46
2021/11/12 13:28:35;;;;;;;;;44.75;38.75;;;;;14.32;57.95;101192.53;4976928;28;45403;-47
2021/11/12 13:31:11;;;;;;;;;48.25;39.75;;;;;14.34;58.45;101175.72;4977050;28;45260;-47
2021/11/12 13:33:51;;;;;;;;;39.75;35.00;;;;;14.43;57.92;101169.34;4977090;28;45323;-45
2021/11/12 13:36:24;;;;;;;;;47.50;38.50;;;;;14.51;57.92;101162.09;4976982;28;45362;-45
2021/11/12 13:38:49;;;;;;;;;46.50;37.25;;;;;14.61;57.97;101157.47;4976882;28;45314;-46
2021/11/12 13:41:17;;;;;;;;;49.50;38.50;;;;;14.69;57.83;101155.53;4977302;28;45355;-46
2021/11/12 13:43:46;;;;;;;;;45.75;38.25;;;;;14.79;58.21;101167.63;4976579;28;45845;-44
2021/11/12 13:46:13;;;;;;;;;46.50;39.00;;;;;14.88;57.91;101163.00;4978802;28;47083;-44
2021/11/12 13:48:54;;;;;;;;;45.75;38.00;;;;;14.94;57.98;101145.19;4990390;28;45474;-46
2021/11/12 13:51:27;;;;;;;;;47.75;39.00;;;;;14.99;57.71;101139.75;4979916;28;45259;-44
2021/11/12 13:53:53;;;;;;;;;44.50;37.75;;;;;15.06;57.61;101145.78;4980050;28;45291;-47
2021/11/12 13:56:18;;;;;;;;;43.50;37.50;;;;;15.10;57.76;101145.63;4979796;28;45451;-47
2021/11/12 13:58:45;;;;;;;;;42.00;36.00;;;;;15.16;57.98;101138.47;4979593;28;45319;-45
2021/11/12 14:01:20;;;;;;;;;45.25;38.25;;;;;15.22;57.89;101136.53;4978530;28;45228;-46
2021/11/12 14:03:46;;;;;;;;;48.25;37.75;;;;;15.29;58.08;101131.91;4980010;28;45227;-49
2021/11/12 14:06:12;;;;;;;;;47.25;37.75;;;;;15.38;57.30;101129.03;4979641;28;45977;-46
2021/11/12 14:08:44;;;;;;;;;41.00;36.00;;;;;15.48;57.65;101126.97;4979770;28;45209;-49
2021/11/12 14:11:28;;;;;;;;;50.00;42.25;;;;;15.61;57.74;101135.44;4979791;28;45270;-47
2021/11/12 14:13:59;;;;;;;;;43.50;37.25;;;;;15.71;57.89;101125.44;4979503;28;45170;-47
2021/11/12 14:16:56;;;;;;;;;43.00;35.50;;;;;15.87;58.06;101137.38;4978230;28;46535;-48
2021/11/12 14:22:08;;;;;;;;;32.00;30.50;;;;;16.15;57.56;101125.91;4979482;28;45275;-45
2021/11/12 14:32:50;;;;;;;;;40.00;33.50;;;;;16.70;57.53;101101.13;4979438;28;45362;-47
2021/11/12 14:52:24;;;;;;;;;42.00;36.75;;;;;17.85;56.72;101103.22;4979174;28;45508;-45
2021/11/12 14:54:47;;;;;;;;;43.00;35.50;;;;;18.01;56.83;101100.84;4979896;28;45342;-48
2021/11/12 14:59:50;;;;;;;;;36.50;32.25;;;;;18.22;56.21;101108.91;4978573;28;45378;-49
2021/11/12 15:02:16;;;;;;;;;37.50;33.25;;;;;18.30;56.47;101109.44;4979206;28;45253;-47
2021/11/12 15:04:41;;;;;;;;;38.50;32.75;;;;;18.35;55.57;101110.13;4978991;28;45209;-49
2021/11/12 15:07:07;;;;;;;;;42.75;34.50;;;;;18.37;55.50;101110.94;4979171;28;45223;-49
2021/11/12 15:09:35;;;;;;;;;37.00;32.00;;;;;18.34;55.67;101111.06;4978896;28;46163;-48
2021/11/12 15:12:06;;;;;;;;;39.00;34.00;;;;;18.30;55.98;101110.31;4978835;28;45257;-45
2021/11/12 15:14:36;;;;;;;;;38.50;34.25;;;;;18.26;55.49;101103.38;4978794;28;45248;-48
2021/11/12 15:17:05;;;;;;;;;43.50;34.00;;;;;18.18;55.80;101118.81;4978854;28;45521;-48
2021/11/12 15:19:34;;;;;;;;;39.25;32.75;;;;;18.08;55.49;101109.47;4978641;28;46078;-48
2021/11/12 15:22:12;;;;;;;;;39.00;34.00;;;;;18.04;55.44;101122.00;4978891;28;45415;-46
2021/11/12 15:27:30;;;;;;;;;42.50;36.00;;;;;17.86;55.37;101104.94;4978508;28;45552;-45
2021/11/12 15:30:04;;;;;;;;;42.75;34.75;;;;;17.75;55.41;101100.06;4977240;28;46991;-47
2021/11/12 15:32:40;;;;;;;;;40.00;36.00;;;;;17.65;55.73;101101.34;4978585;28;45358;-49
2021/11/12 15:35:12;;;;;;;;;45.75;35.50;;;;;17.55;55.47;101103.47;4978718;28;45450;-46
2021/11/12 15:40:29;;;;;;;;;45.25;37.75;;;;;17.34;55.23;101094.50;4978552;28;46147;-45
2021/11/12 15:45:53;;;;;;;;;56.25;45.25;;;;;17.12;55.20;101103.25;4978570;28;45505;-47
2021/11/12 15:48:21;;;;;;;;;54.75;43.25;;;;;16.98;55.13;101100.22;4972677;28;45532;-44
2021/11/12 16:20:09;;;;;;;;;51.25;42.25;;;;;15.57;55.11;101137.31;4978200;28;45423;-48
2021/11/12 16:23:12;;;;;;;;;54.00;44.00;;;;;15.47;55.14;101143.78;4978006;28;46245;-47
2021/11/12 16:25:38;;;;;;;;;57.75;46.75;;;;;15.33;55.17;101140.66;4977866;28;45154;-46
2021/11/12 16:28:05;;;;;;;;;53.00;44.75;;;;;15.23;54.99;101140.03;4977888;28;45349;-46
2021/11/12 16:30:36;;;;;;;;;64.25;50.75;;;;;15.13;55.56;101134.09;4977989;28;45258;-45
2021/11/12 16:33:04;;;;;;;;;61.75;50.00;;;;;15.04;55.21;101137.00;4977929;28;46229;-44
2021/11/12 16:35:33;;;;;;;;;61.00;48.00;;;;;14.92;55.54;101131.13;4977778;28;45422;-46
2021/11/12 16:38:21;;;;;;;;;58.75;47.75;;;;;14.81;55.39;101127.91;4978118;28;45325;-44
2021/11/12 16:40:54;;;;;;;;;54.50;44.25;;;;;14.71;55.41;101134.34;4977861;27;45272;-45
2021/11/12 16:59:17;;;;;;;;;56.50;45.00;;;;;14.01;55.83;101124.50;4957913;28;45371;-47
2021/11/12 17:12:04;;;;;;;;;55.25;45.25;;;;;13.63;55.96;101130.56;4977246;28;45457;-44
2021/11/12 17:14:50;;;;;;;;;51.00;43.25;;;;;13.52;56.32;101113.19;4959337;28;45420;-44
2021/11/12 17:23:32;;;;;;;;;50.25;41.50;;;;;13.25;56.47;101097.84;5017482;28;45366;-48
2021/11/12 17:47:46;;;;;;;;;47.75;39.75;;;;;12.64;56.92;101069.09;4963546;28;45409;-44
2021/11/12 17:50:22;;;;;;;;;51.00;41.50;;;;;12.61;57.37;101074.41;4987042;28;45510;-50
2021/11/12 18:03:30;;;;;;;;;53.50;41.75;;;;;12.39;57.75;101071.28;4966653;28;45335;-47
2021/11/12 18:06:11;;;;;;;;;50.75;43.00;;;;;12.34;57.45;101067.84;4965070;28;45401;-43
2021/11/12 21:46:15;;;;;;;;;33.00;30.25;;;;;12.10;62.14;101063.81;4964499;28;45767;-51
2021/11/12 21:48:18;;;;;;;;;47.25;38.00;;;;;12.13;62.10;101058.50;4965420;28;45383;-52
2021/11/12 21:50:45;;;;;;;;;43.25;35.75;;;;;12.15;62.27;101065.50;4965729;28;45394;-53
2021/11/12 21:53:11;;;;;;;;;41.25;33.00;;;;;12.18;62.13;101061.94;4959617;28;45498;-52